sensor_id;sensor_type;location;lat;lon;timestamp;P1;durP1;ratioP1;P2;durP2;ratioP2
14348;SDS011;7258;50.376;8.742;2024-01-07T00:00:26;5.07;;;4.57;;
14348;SDS011;7258;50.376;8.742;2024-01-07T00:02:31;5.10;;;4.60;;
14348;SDS011;7258;50.376;8.742;2024-01-07T00:04:34;5.20;;;4.50;;
14348;SDS011;7258;50.376;8.742;2024-01-07T00:06:39;5.13;;;4.60;;
14348;SDS011;7258;50.376;8.742;2024-01-07T00:08:42;5.47;;;4.87;;
14348;SDS011;7258;50.376;8.742;2024-01-07T00:10:45;5.33;;;4.83;;
14348;SDS011;7258;50.376;8.742;2024-01-07T00:12:47;5.60;;;4.07;;
14348;SDS011;7258;50.376;8.742;2024-01-07T00:14:53;4.97;;;4.53;;
14348;SDS011;7258;50.376;8.742;2024-01-07T00:16:56;5.93;;;4.80;;
14348;SDS011;7258;50.376;8.742;2024-01-07T00:18:59;4.93;;;4.47;;
14348;SDS011;7258;50.376;8.742;2024-01-07T00:21:04;4.80;;;4.33;;
14348;SDS011;7258;50.376;8.742;2024-01-07T00:23:08;5.10;;;4.60;;
14348;SDS011;7258;50.376;8.742;2024-01-07T00:25:11;4.80;;;4.30;;
14348;SDS011;7258;50.376;8.742;2024-01-07T00:27:14;4.77;;;4.27;;
14348;SDS011;7258;50.376;8.742;2024-01-07T00:29:18;5.20;;;4.20;;
14348;SDS011;7258;50.376;8.742;2024-01-07T00:31:21;4.60;;;4.20;;
14348;SDS011;7258;50.376;8.742;2024-01-07T00:33:23;4.80;;;4.40;;
14348;SDS011;7258;50.376;8.742;2024-01-07T00:35:26;5.23;;;4.73;;
14348;SDS011;7258;50.376;8.742;2024-01-07T00:37:29;5.50;;;4.10;;
14348;SDS011;7258;50.376;8.742;2024-01-07T00:39:36;4.73;;;4.33;;
14348;SDS011;7258;50.376;8.742;2024-01-07T00:41:39;5.03;;;4.53;;
14348;SDS011;7258;50.376;8.742;2024-01-07T00:43:42;5.30;;;4.43;;
14348;SDS011;7258;50.376;8.742;2024-01-07T00:45:45;5.27;;;4.03;;
14348;SDS011;7258;50.376;8.742;2024-01-07T00:47:49;4.93;;;4.43;;
14348;SDS011;7258;50.376;8.742;2024-01-07T00:49:53;4.40;;;4.00;;
14348;SDS011;7258;50.376;8.742;2024-01-07T00:51:56;4.57;;;4.00;;
14348;SDS011;7258;50.376;8.742;2024-01-07T00:53:58;4.90;;;4.50;;
14348;SDS011;7258;50.376;8.742;2024-01-07T00:56:03;4.60;;;4.20;;
14348;SDS011;7258;50.376;8.742;2024-01-07T00:58:06;4.30;;;3.83;;
14348;SDS011;7258;50.376;8.742;2024-01-07T01:00:13;4.27;;;3.87;;
14348;SDS011;7258;50.376;8.742;2024-01-07T01:02:16;4.37;;;3.97;;
14348;SDS011;7258;50.376;8.742;2024-01-07T01:04:19;4.43;;;3.97;;
14348;SDS011;7258;50.376;8.742;2024-01-07T01:06:22;4.30;;;3.90;;
14348;SDS011;7258;50.376;8.742;2024-01-07T01:08:25;4.83;;;3.93;;
14348;SDS011;7258;50.376;8.742;2024-01-07T01:10:28;4.00;;;3.60;;
14348;SDS011;7258;50.376;8.742;2024-01-07T01:12:32;5.43;;;4.00;;
14348;SDS011;7258;50.376;8.742;2024-01-07T01:14:36;4.13;;;3.73;;
14348;SDS011;7258;50.376;8.742;2024-01-07T01:16:39;4.30;;;3.90;;
14348;SDS011;7258;50.376;8.742;2024-01-07T01:18:42;5.90;;;3.90;;
14348;SDS011;7258;50.376;8.742;2024-01-07T01:20:45;5.47;;;4.10;;
14348;SDS011;7258;50.376;8.742;2024-01-07T01:22:48;4.17;;;3.77;;
14348;SDS011;7258;50.376;8.742;2024-01-07T01:24:51;4.30;;;3.90;;
14348;SDS011;7258;50.376;8.742;2024-01-07T01:26:54;4.27;;;3.87;;
14348;SDS011;7258;50.376;8.742;2024-01-07T01:28:59;4.40;;;4.00;;
14348;SDS011;7258;50.376;8.742;2024-01-07T01:31:02;4.37;;;3.97;;
14348;SDS011;7258;50.376;8.742;2024-01-07T01:33:06;4.23;;;3.83;;
14348;SDS011;7258;50.376;8.742;2024-01-07T01:35:09;4.53;;;4.13;;
14348;SDS011;7258;50.376;8.742;2024-01-07T01:37:12;3.90;;;3.60;;
14348;SDS011;7258;50.376;8.742;2024-01-07T01:39:16;4.17;;;3.77;;
14348;SDS011;7258;50.376;8.742;2024-01-07T01:41:19;4.17;;;3.77;;
14348;SDS011;7258;50.376;8.742;2024-01-07T01:43:23;4.30;;;3.90;;
14348;SDS011;7258;50.376;8.742;2024-01-07T01:45:27;4.20;;;3.80;;
14348;SDS011;7258;50.376;8.742;2024-01-07T01:47:31;4.07;;;3.50;;
14348;SDS011;7258;50.376;8.742;2024-01-07T01:49:33;4.33;;;3.90;;
14348;SDS011;7258;50.376;8.742;2024-01-07T01:51:38;4.57;;;4.17;;
14348;SDS011;7258;50.376;8.742;2024-01-07T01:53:41;4.10;;;3.70;;
14348;SDS011;7258;50.376;8.742;2024-01-07T01:55:45;4.23;;;3.83;;
14348;SDS011;7258;50.376;8.742;2024-01-07T01:57:48;4.80;;;4.40;;
14348;SDS011;7258;50.376;8.742;2024-01-07T01:59:52;4.30;;;3.90;;
14348;SDS011;7258;50.376;8.742;2024-01-07T02:01:57;3.77;;;3.47;;
14348;SDS011;7258;50.376;8.742;2024-01-07T02:04:00;3.83;;;3.53;;
14348;SDS011;7258;50.376;8.742;2024-01-07T02:06:04;4.37;;;3.97;;
14348;SDS011;7258;50.376;8.742;2024-01-07T02:08:07;5.73;;;4.10;;
14348;SDS011;7258;50.376;8.742;2024-01-07T02:10:10;5.27;;;4.20;;
14348;SDS011;7258;50.376;8.742;2024-01-07T02:12:13;4.37;;;3.97;;
14348;SDS011;7258;50.376;8.742;2024-01-07T02:14:16;4.17;;;3.77;;
14348;SDS011;7258;50.376;8.742;2024-01-07T02:16:19;4.60;;;4.03;;
14348;SDS011;7258;50.376;8.742;2024-01-07T02:18:24;4.13;;;3.73;;
14348;SDS011;7258;50.376;8.742;2024-01-07T02:20:27;5.27;;;4.43;;
14348;SDS011;7258;50.376;8.742;2024-01-07T02:22:30;4.33;;;3.93;;
14348;SDS011;7258;50.376;8.742;2024-01-07T02:24:35;4.40;;;4.00;;
14348;SDS011;7258;50.376;8.742;2024-01-07T02:26:38;5.03;;;4.20;;
14348;SDS011;7258;50.376;8.742;2024-01-07T02:28:41;5.00;;;4.23;;
14348;SDS011;7258;50.376;8.742;2024-01-07T02:30:44;5.87;;;3.90;;
14348;SDS011;7258;50.376;8.742;2024-01-07T02:32:48;4.80;;;4.20;;
14348;SDS011;7258;50.376;8.742;2024-01-07T02:34:51;6.60;;;4.57;;
14348;SDS011;7258;50.376;8.742;2024-01-07T02:36:54;5.10;;;4.57;;
14348;SDS011;7258;50.376;8.742;2024-01-07T02:38:57;5.87;;;4.63;;
14348;SDS011;7258;50.376;8.742;2024-01-07T02:41:01;4.50;;;4.10;;
14348;SDS011;7258;50.376;8.742;2024-01-07T02:43:04;4.90;;;4.40;;
14348;SDS011;7258;50.376;8.742;2024-01-07T02:45:08;5.77;;;4.90;;
14348;SDS011;7258;50.376;8.742;2024-01-07T02:47:12;5.77;;;4.50;;
14348;SDS011;7258;50.376;8.742;2024-01-07T02:49:15;5.30;;;4.73;;
14348;SDS011;7258;50.376;8.742;2024-01-07T02:51:19;6.13;;;4.60;;
14348;SDS011;7258;50.376;8.742;2024-01-07T02:53:22;4.90;;;4.40;;
14348;SDS011;7258;50.376;8.742;2024-01-07T02:55:25;5.63;;;4.90;;
14348;SDS011;7258;50.376;8.742;2024-01-07T02:57:28;4.70;;;4.10;;
14348;SDS011;7258;50.376;8.742;2024-01-07T02:59:32;5.43;;;4.67;;
14348;SDS011;7258;50.376;8.742;2024-01-07T03:01:36;6.73;;;4.70;;
14348;SDS011;7258;50.376;8.742;2024-01-07T03:03:41;6.80;;;5.00;;
14348;SDS011;7258;50.376;8.742;2024-01-07T03:05:44;8.37;;;4.97;;
14348;SDS011;7258;50.376;8.742;2024-01-07T03:07:48;6.20;;;4.67;;
14348;SDS011;7258;50.376;8.742;2024-01-07T03:09:51;6.40;;;5.10;;
14348;SDS011;7258;50.376;8.742;2024-01-07T03:11:54;7.37;;;5.43;;
14348;SDS011;7258;50.376;8.742;2024-01-07T03:13:59;7.37;;;5.63;;
14348;SDS011;7258;50.376;8.742;2024-01-07T03:16:02;6.97;;;5.60;;
14348;SDS011;7258;50.376;8.742;2024-01-07T03:18:04;6.77;;;5.63;;
14348;SDS011;7258;50.376;8.742;2024-01-07T03:20:08;6.33;;;5.70;;
14348;SDS011;7258;50.376;8.742;2024-01-07T03:22:11;8.63;;;6.20;;
14348;SDS011;7258;50.376;8.742;2024-01-07T03:24:14;9.00;;;6.80;;
14348;SDS011;7258;50.376;8.742;2024-01-07T03:26:18;8.23;;;6.93;;
14348;SDS011;7258;50.376;8.742;2024-01-07T03:28:20;8.90;;;7.27;;
14348;SDS011;7258;50.376;8.742;2024-01-07T03:30:24;9.83;;;6.97;;
14348;SDS011;7258;50.376;8.742;2024-01-07T03:32:28;10.93;;;7.27;;
14348;SDS011;7258;50.376;8.742;2024-01-07T03:34:31;9.50;;;7.57;;
14348;SDS011;7258;50.376;8.742;2024-01-07T03:36:34;10.80;;;8.13;;
14348;SDS011;7258;50.376;8.742;2024-01-07T03:38:38;11.23;;;7.93;;
14348;SDS011;7258;50.376;8.742;2024-01-07T03:40:41;12.90;;;9.57;;
14348;SDS011;7258;50.376;8.742;2024-01-07T03:42:44;13.03;;;8.73;;
14348;SDS011;7258;50.376;8.742;2024-01-07T03:44:48;11.67;;;8.87;;
14348;SDS011;7258;50.376;8.742;2024-01-07T03:46:51;13.60;;;9.40;;
14348;SDS011;7258;50.376;8.742;2024-01-07T03:48:54;14.23;;;10.67;;
14348;SDS011;7258;50.376;8.742;2024-01-07T03:50:58;14.43;;;11.00;;
14348;SDS011;7258;50.376;8.742;2024-01-07T03:53:01;18.33;;;12.43;;
14348;SDS011;7258;50.376;8.742;2024-01-07T03:55:05;15.73;;;11.23;;
14348;SDS011;7258;50.376;8.742;2024-01-07T03:57:09;16.67;;;11.50;;
14348;SDS011;7258;50.376;8.742;2024-01-07T03:59:12;15.30;;;11.43;;
14348;SDS011;7258;50.376;8.742;2024-01-07T04:01:15;19.07;;;12.77;;
14348;SDS011;7258;50.376;8.742;2024-01-07T04:03:20;16.17;;;12.30;;
14348;SDS011;7258;50.376;8.742;2024-01-07T04:05:23;15.63;;;12.43;;
14348;SDS011;7258;50.376;8.742;2024-01-07T04:07:27;17.90;;;12.90;;
14348;SDS011;7258;50.376;8.742;2024-01-07T04:09:30;15.47;;;11.97;;
14348;SDS011;7258;50.376;8.742;2024-01-07T04:11:33;15.83;;;13.17;;
14348;SDS011;7258;50.376;8.742;2024-01-07T04:13:36;16.13;;;12.07;;
14348;SDS011;7258;50.376;8.742;2024-01-07T04:15:39;17.77;;;13.10;;
14348;SDS011;7258;50.376;8.742;2024-01-07T04:17:42;15.40;;;12.70;;
14348;SDS011;7258;50.376;8.742;2024-01-07T04:19:47;17.40;;;12.63;;
14348;SDS011;7258;50.376;8.742;2024-01-07T04:21:50;17.73;;;13.00;;
14348;SDS011;7258;50.376;8.742;2024-01-07T04:23:53;18.67;;;14.13;;
14348;SDS011;7258;50.376;8.742;2024-01-07T04:25:57;16.90;;;13.83;;
14348;SDS011;7258;50.376;8.742;2024-01-07T04:28:00;17.73;;;14.63;;
14348;SDS011;7258;50.376;8.742;2024-01-07T04:30:04;16.97;;;13.67;;
14348;SDS011;7258;50.376;8.742;2024-01-07T04:32:07;18.13;;;13.70;;
14348;SDS011;7258;50.376;8.742;2024-01-07T04:34:11;18.37;;;14.13;;
14348;SDS011;7258;50.376;8.742;2024-01-07T04:36:15;18.17;;;13.70;;
14348;SDS011;7258;50.376;8.742;2024-01-07T04:38:19;20.80;;;15.10;;
14348;SDS011;7258;50.376;8.742;2024-01-07T04:40:22;18.93;;;15.03;;
14348;SDS011;7258;50.376;8.742;2024-01-07T04:42:26;20.13;;;15.87;;
14348;SDS011;7258;50.376;8.742;2024-01-07T04:44:28;19.93;;;15.27;;
14348;SDS011;7258;50.376;8.742;2024-01-07T04:46:33;19.63;;;15.20;;
14348;SDS011;7258;50.376;8.742;2024-01-07T04:48:36;17.43;;;14.73;;
14348;SDS011;7258;50.376;8.742;2024-01-07T04:50:40;18.07;;;13.67;;
14348;SDS011;7258;50.376;8.742;2024-01-07T04:52:45;16.80;;;13.60;;
14348;SDS011;7258;50.376;8.742;2024-01-07T04:54:49;17.83;;;14.80;;
14348;SDS011;7258;50.376;8.742;2024-01-07T04:56:53;19.30;;;14.23;;
14348;SDS011;7258;50.376;8.742;2024-01-07T04:58:56;15.67;;;12.73;;
14348;SDS011;7258;50.376;8.742;2024-01-07T05:01:00;15.27;;;11.73;;
14348;SDS011;7258;50.376;8.742;2024-01-07T05:03:03;13.77;;;11.00;;
14348;SDS011;7258;50.376;8.742;2024-01-07T05:05:07;10.13;;;9.03;;
14348;SDS011;7258;50.376;8.742;2024-01-07T05:07:10;9.37;;;8.03;;
14348;SDS011;7258;50.376;8.742;2024-01-07T05:09:15;8.57;;;7.57;;
14348;SDS011;7258;50.376;8.742;2024-01-07T05:11:18;8.20;;;7.30;;
14348;SDS011;7258;50.376;8.742;2024-01-07T05:13:21;8.80;;;7.50;;
14348;SDS011;7258;50.376;8.742;2024-01-07T05:15:25;9.40;;;7.40;;
14348;SDS011;7258;50.376;8.742;2024-01-07T05:17:28;8.77;;;7.57;;
14348;SDS011;7258;50.376;8.742;2024-01-07T05:19:31;6.97;;;6.17;;
14348;SDS011;7258;50.376;8.742;2024-01-07T05:21:35;6.87;;;6.23;;
14348;SDS011;7258;50.376;8.742;2024-01-07T05:23:39;6.90;;;6.20;;
14348;SDS011;7258;50.376;8.742;2024-01-07T05:25:44;6.77;;;6.07;;
14348;SDS011;7258;50.376;8.742;2024-01-07T05:27:47;6.70;;;6.00;;
14348;SDS011;7258;50.376;8.742;2024-01-07T05:29:50;5.97;;;5.47;;
14348;SDS011;7258;50.376;8.742;2024-01-07T05:31:56;7.07;;;6.37;;
14348;SDS011;7258;50.376;8.742;2024-01-07T05:34:01;6.60;;;5.90;;
14348;SDS011;7258;50.376;8.742;2024-01-07T05:36:05;6.17;;;5.57;;
14348;SDS011;7258;50.376;8.742;2024-01-07T05:38:08;6.87;;;5.47;;
14348;SDS011;7258;50.376;8.742;2024-01-07T05:40:11;6.30;;;5.47;;
14348;SDS011;7258;50.376;8.742;2024-01-07T05:42:16;6.37;;;5.77;;
14348;SDS011;7258;50.376;8.742;2024-01-07T05:44:20;5.27;;;4.77;;
14348;SDS011;7258;50.376;8.742;2024-01-07T05:46:24;5.80;;;5.30;;
14348;SDS011;7258;50.376;8.742;2024-01-07T05:48:27;6.43;;;5.80;;
14348;SDS011;7258;50.376;8.742;2024-01-07T05:50:32;6.83;;;6.07;;
14348;SDS011;7258;50.376;8.742;2024-01-07T05:52:36;6.67;;;6.00;;
14348;SDS011;7258;50.376;8.742;2024-01-07T05:54:39;6.87;;;6.17;;
14348;SDS011;7258;50.376;8.742;2024-01-07T05:56:43;9.00;;;6.53;;
14348;SDS011;7258;50.376;8.742;2024-01-07T05:58:47;7.20;;;6.33;;
14348;SDS011;7258;50.376;8.742;2024-01-07T06:00:50;7.57;;;6.80;;
14348;SDS011;7258;50.376;8.742;2024-01-07T06:02:54;7.77;;;6.97;;
14348;SDS011;7258;50.376;8.742;2024-01-07T06:04:57;10.70;;;8.23;;
14348;SDS011;7258;50.376;8.742;2024-01-07T06:07:00;10.37;;;8.80;;
14348;SDS011;7258;50.376;8.742;2024-01-07T06:09:03;10.93;;;9.17;;
14348;SDS011;7258;50.376;8.742;2024-01-07T06:11:07;11.63;;;9.17;;
14348;SDS011;7258;50.376;8.742;2024-01-07T06:13:10;10.73;;;8.93;;
14348;SDS011;7258;50.376;8.742;2024-01-07T06:15:14;11.93;;;9.57;;
14348;SDS011;7258;50.376;8.742;2024-01-07T06:17:17;9.93;;;8.73;;
14348;SDS011;7258;50.376;8.742;2024-01-07T06:19:20;12.03;;;9.43;;
14348;SDS011;7258;50.376;8.742;2024-01-07T06:21:23;11.33;;;9.00;;
14348;SDS011;7258;50.376;8.742;2024-01-07T06:23:26;12.97;;;9.20;;
14348;SDS011;7258;50.376;8.742;2024-01-07T06:25:29;12.43;;;9.63;;
14348;SDS011;7258;50.376;8.742;2024-01-07T06:27:32;10.57;;;9.43;;
14348;SDS011;7258;50.376;8.742;2024-01-07T06:29:36;12.10;;;9.30;;
14348;SDS011;7258;50.376;8.742;2024-01-07T06:31:43;11.33;;;9.20;;
14348;SDS011;7258;50.376;8.742;2024-01-07T06:33:47;13.30;;;9.50;;
14348;SDS011;7258;50.376;8.742;2024-01-07T06:35:51;13.33;;;9.60;;
14348;SDS011;7258;50.376;8.742;2024-01-07T06:37:53;10.97;;;9.20;;
14348;SDS011;7258;50.376;8.742;2024-01-07T06:39:56;11.67;;;8.97;;
14348;SDS011;7258;50.376;8.742;2024-01-07T06:41:59;11.83;;;9.50;;
14348;SDS011;7258;50.376;8.742;2024-01-07T06:44:02;13.03;;;9.73;;
14348;SDS011;7258;50.376;8.742;2024-01-07T06:46:06;12.83;;;9.83;;
14348;SDS011;7258;50.376;8.742;2024-01-07T06:48:10;14.27;;;10.40;;
14348;SDS011;7258;50.376;8.742;2024-01-07T06:50:14;11.70;;;9.80;;
14348;SDS011;7258;50.376;8.742;2024-01-07T06:52:17;12.80;;;10.43;;
14348;SDS011;7258;50.376;8.742;2024-01-07T06:54:22;11.73;;;10.03;;
14348;SDS011;7258;50.376;8.742;2024-01-07T06:56:25;11.83;;;9.63;;
14348;SDS011;7258;50.376;8.742;2024-01-07T06:58:28;13.73;;;10.70;;
14348;SDS011;7258;50.376;8.742;2024-01-07T07:00:30;12.67;;;10.57;;
14348;SDS011;7258;50.376;8.742;2024-01-07T07:02:34;13.60;;;10.73;;
14348;SDS011;7258;50.376;8.742;2024-01-07T07:04:38;13.23;;;10.37;;
14348;SDS011;7258;50.376;8.742;2024-01-07T07:06:41;12.73;;;9.90;;
14348;SDS011;7258;50.376;8.742;2024-01-07T07:08:45;13.57;;;10.70;;
14348;SDS011;7258;50.376;8.742;2024-01-07T07:10:48;12.53;;;10.33;;
14348;SDS011;7258;50.376;8.742;2024-01-07T07:12:52;14.03;;;11.10;;
14348;SDS011;7258;50.376;8.742;2024-01-07T07:14:55;15.77;;;11.90;;
14348;SDS011;7258;50.376;8.742;2024-01-07T07:16:58;14.47;;;11.90;;
14348;SDS011;7258;50.376;8.742;2024-01-07T07:19:01;15.60;;;12.43;;
14348;SDS011;7258;50.376;8.742;2024-01-07T07:21:06;16.97;;;12.77;;
14348;SDS011;7258;50.376;8.742;2024-01-07T07:23:09;16.80;;;12.77;;
14348;SDS011;7258;50.376;8.742;2024-01-07T07:25:12;17.30;;;12.93;;
14348;SDS011;7258;50.376;8.742;2024-01-07T07:27:16;16.73;;;13.10;;
14348;SDS011;7258;50.376;8.742;2024-01-07T07:29:19;20.27;;;15.63;;
14348;SDS011;7258;50.376;8.742;2024-01-07T07:31:22;19.13;;;14.43;;
14348;SDS011;7258;50.376;8.742;2024-01-07T07:33:26;18.80;;;15.17;;
14348;SDS011;7258;50.376;8.742;2024-01-07T07:35:29;20.90;;;14.43;;
14348;SDS011;7258;50.376;8.742;2024-01-07T07:37:34;23.20;;;15.83;;
14348;SDS011;7258;50.376;8.742;2024-01-07T07:39:36;24.20;;;16.53;;
14348;SDS011;7258;50.376;8.742;2024-01-07T07:41:39;22.40;;;16.80;;
14348;SDS011;7258;50.376;8.742;2024-01-07T07:43:42;24.80;;;17.07;;
14348;SDS011;7258;50.376;8.742;2024-01-07T07:45:46;23.67;;;17.53;;
14348;SDS011;7258;50.376;8.742;2024-01-07T07:47:49;19.00;;;14.43;;
14348;SDS011;7258;50.376;8.742;2024-01-07T07:49:52;19.30;;;14.67;;
14348;SDS011;7258;50.376;8.742;2024-01-07T07:51:56;19.23;;;13.53;;
14348;SDS011;7258;50.376;8.742;2024-01-07T07:54:01;19.90;;;13.90;;
14348;SDS011;7258;50.376;8.742;2024-01-07T07:56:05;18.27;;;13.13;;
14348;SDS011;7258;50.376;8.742;2024-01-07T07:58:09;17.10;;;12.90;;
14348;SDS011;7258;50.376;8.742;2024-01-07T08:00:13;15.07;;;12.03;;
14348;SDS011;7258;50.376;8.742;2024-01-07T08:02:16;15.07;;;11.87;;
14348;SDS011;7258;50.376;8.742;2024-01-07T08:04:18;16.63;;;12.33;;
14348;SDS011;7258;50.376;8.742;2024-01-07T08:06:22;15.73;;;11.93;;
14348;SDS011;7258;50.376;8.742;2024-01-07T08:08:25;15.63;;;11.90;;
14348;SDS011;7258;50.376;8.742;2024-01-07T08:10:29;15.70;;;11.80;;
14348;SDS011;7258;50.376;8.742;2024-01-07T08:12:33;15.87;;;12.00;;
14348;SDS011;7258;50.376;8.742;2024-01-07T08:14:36;14.80;;;12.07;;
14348;SDS011;7258;50.376;8.742;2024-01-07T08:16:42;13.63;;;10.77;;
14348;SDS011;7258;50.376;8.742;2024-01-07T08:18:45;14.17;;;10.67;;
14348;SDS011;7258;50.376;8.742;2024-01-07T08:20:48;14.23;;;11.13;;
14348;SDS011;7258;50.376;8.742;2024-01-07T08:22:51;12.97;;;10.60;;
14348;SDS011;7258;50.376;8.742;2024-01-07T08:24:54;13.40;;;10.47;;
14348;SDS011;7258;50.376;8.742;2024-01-07T08:26:59;13.37;;;10.70;;
14348;SDS011;7258;50.376;8.742;2024-01-07T08:29:02;13.57;;;10.43;;
14348;SDS011;7258;50.376;8.742;2024-01-07T08:31:05;14.97;;;10.30;;
14348;SDS011;7258;50.376;8.742;2024-01-07T08:33:09;12.50;;;10.50;;
14348;SDS011;7258;50.376;8.742;2024-01-07T08:35:11;13.13;;;10.03;;
14348;SDS011;7258;50.376;8.742;2024-01-07T08:37:18;12.23;;;9.50;;
14348;SDS011;7258;50.376;8.742;2024-01-07T08:39:21;12.00;;;10.70;;
14348;SDS011;7258;50.376;8.742;2024-01-07T08:41:23;11.40;;;9.23;;
14348;SDS011;7258;50.376;8.742;2024-01-07T08:43:28;11.83;;;9.83;;
14348;SDS011;7258;50.376;8.742;2024-01-07T08:45:31;9.97;;;8.53;;
14348;SDS011;7258;50.376;8.742;2024-01-07T08:47:34;10.33;;;8.97;;
14348;SDS011;7258;50.376;8.742;2024-01-07T08:49:44;13.20;;;10.83;;
14348;SDS011;7258;50.376;8.742;2024-01-07T08:51:47;10.50;;;8.43;;
14348;SDS011;7258;50.376;8.742;2024-01-07T08:53:50;9.70;;;8.70;;
14348;SDS011;7258;50.376;8.742;2024-01-07T08:55:53;9.83;;;8.70;;
14348;SDS011;7258;50.376;8.742;2024-01-07T08:57:56;9.63;;;8.63;;
14348;SDS011;7258;50.376;8.742;2024-01-07T09:00:01;8.83;;;7.93;;
14348;SDS011;7258;50.376;8.742;2024-01-07T09:02:05;10.03;;;8.33;;
14348;SDS011;7258;50.376;8.742;2024-01-07T09:04:09;9.87;;;8.63;;
14348;SDS011;7258;50.376;8.742;2024-01-07T09:06:12;10.90;;;9.50;;
14348;SDS011;7258;50.376;8.742;2024-01-07T09:08:15;10.67;;;9.57;;
14348;SDS011;7258;50.376;8.742;2024-01-07T09:10:19;9.90;;;8.87;;
14348;SDS011;7258;50.376;8.742;2024-01-07T09:12:22;12.67;;;10.40;;
14348;SDS011;7258;50.376;8.742;2024-01-07T09:14:26;11.43;;;10.07;;
14348;SDS011;7258;50.376;8.742;2024-01-07T09:16:31;10.50;;;9.13;;
14348;SDS011;7258;50.376;8.742;2024-01-07T09:18:33;10.10;;;9.03;;
14348;SDS011;7258;50.376;8.742;2024-01-07T09:20:36;10.60;;;9.47;;
14348;SDS011;7258;50.376;8.742;2024-01-07T09:22:38;10.30;;;9.20;;
14348;SDS011;7258;50.376;8.742;2024-01-07T09:24:43;10.77;;;9.63;;
14348;SDS011;7258;50.376;8.742;2024-01-07T09:26:45;10.30;;;8.70;;
14348;SDS011;7258;50.376;8.742;2024-01-07T09:28:48;10.50;;;9.50;;
14348;SDS011;7258;50.376;8.742;2024-01-07T09:30:53;10.43;;;8.57;;
14348;SDS011;7258;50.376;8.742;2024-01-07T09:32:57;9.03;;;8.13;;
14348;SDS011;7258;50.376;8.742;2024-01-07T09:35:01;10.07;;;8.40;;
14348;SDS011;7258;50.376;8.742;2024-01-07T09:37:09;8.70;;;7.77;;
14348;SDS011;7258;50.376;8.742;2024-01-07T09:39:12;8.33;;;7.03;;
14348;SDS011;7258;50.376;8.742;2024-01-07T09:41:16;8.70;;;7.70;;
14348;SDS011;7258;50.376;8.742;2024-01-07T09:43:19;9.33;;;7.97;;
14348;SDS011;7258;50.376;8.742;2024-01-07T09:45:24;8.57;;;7.67;;
14348;SDS011;7258;50.376;8.742;2024-01-07T09:47:28;8.53;;;7.63;;
14348;SDS011;7258;50.376;8.742;2024-01-07T09:49:32;7.80;;;7.00;;
14348;SDS011;7258;50.376;8.742;2024-01-07T09:51:36;9.10;;;7.53;;
14348;SDS011;7258;50.376;8.742;2024-01-07T09:53:40;7.20;;;6.40;;
14348;SDS011;7258;50.376;8.742;2024-01-07T09:55:47;8.43;;;6.63;;
14348;SDS011;7258;50.376;8.742;2024-01-07T09:57:54;11.70;;;10.50;;
14348;SDS011;7258;50.376;8.742;2024-01-07T09:59:57;8.20;;;7.40;;
14348;SDS011;7258;50.376;8.742;2024-01-07T10:02:01;8.07;;;7.00;;
14348;SDS011;7258;50.376;8.742;2024-01-07T10:04:04;9.83;;;7.77;;
14348;SDS011;7258;50.376;8.742;2024-01-07T10:06:08;10.53;;;7.97;;
14348;SDS011;7258;50.376;8.742;2024-01-07T10:08:13;8.23;;;7.27;;
14348;SDS011;7258;50.376;8.742;2024-01-07T10:10:16;8.60;;;7.70;;
14348;SDS011;7258;50.376;8.742;2024-01-07T10:12:22;8.07;;;7.13;;
14348;SDS011;7258;50.376;8.742;2024-01-07T10:14:25;7.97;;;7.17;;
14348;SDS011;7258;50.376;8.742;2024-01-07T10:16:32;8.63;;;7.60;;
14348;SDS011;7258;50.376;8.742;2024-01-07T10:18:35;9.47;;;8.13;;
14348;SDS011;7258;50.376;8.742;2024-01-07T10:20:39;8.57;;;7.67;;
14348;SDS011;7258;50.376;8.742;2024-01-07T10:22:47;8.77;;;7.87;;
14348;SDS011;7258;50.376;8.742;2024-01-07T10:24:53;10.63;;;8.07;;
14348;SDS011;7258;50.376;8.742;2024-01-07T10:26:56;8.40;;;7.60;;
14348;SDS011;7258;50.376;8.742;2024-01-07T10:28:59;9.90;;;8.90;;
14348;SDS011;7258;50.376;8.742;2024-01-07T10:31:03;9.17;;;8.27;;
14348;SDS011;7258;50.376;8.742;2024-01-07T10:33:06;9.67;;;8.13;;
14348;SDS011;7258;50.376;8.742;2024-01-07T10:35:11;9.77;;;8.77;;
14348;SDS011;7258;50.376;8.742;2024-01-07T10:37:15;9.87;;;8.73;;
14348;SDS011;7258;50.376;8.742;2024-01-07T10:39:20;10.00;;;8.17;;
14348;SDS011;7258;50.376;8.742;2024-01-07T10:41:23;9.57;;;8.37;;
14348;SDS011;7258;50.376;8.742;2024-01-07T10:43:29;9.83;;;8.67;;
14348;SDS011;7258;50.376;8.742;2024-01-07T10:45:32;11.10;;;9.40;;
14348;SDS011;7258;50.376;8.742;2024-01-07T10:47:36;10.23;;;8.93;;
14348;SDS011;7258;50.376;8.742;2024-01-07T10:49:39;10.20;;;9.07;;
14348;SDS011;7258;50.376;8.742;2024-01-07T10:51:43;11.80;;;8.63;;
14348;SDS011;7258;50.376;8.742;2024-01-07T10:53:50;8.83;;;7.93;;
14348;SDS011;7258;50.376;8.742;2024-01-07T10:55:59;9.40;;;8.20;;
14348;SDS011;7258;50.376;8.742;2024-01-07T10:58:04;9.53;;;8.40;;
14348;SDS011;7258;50.376;8.742;2024-01-07T11:00:08;9.57;;;8.10;;
14348;SDS011;7258;50.376;8.742;2024-01-07T11:02:11;9.10;;;8.20;;
14348;SDS011;7258;50.376;8.742;2024-01-07T11:04:23;9.70;;;7.80;;
14348;SDS011;7258;50.376;8.742;2024-01-07T11:06:31;10.17;;;8.00;;
14348;SDS011;7258;50.376;8.742;2024-01-07T11:08:38;9.50;;;8.13;;
14348;SDS011;7258;50.376;8.742;2024-01-07T11:10:43;10.37;;;8.00;;
14348;SDS011;7258;50.376;8.742;2024-01-07T11:12:55;9.10;;;8.10;;
14348;SDS011;7258;50.376;8.742;2024-01-07T11:14:59;9.73;;;8.03;;
14348;SDS011;7258;50.376;8.742;2024-01-07T11:17:02;10.73;;;8.87;;
14348;SDS011;7258;50.376;8.742;2024-01-07T11:19:05;9.57;;;7.90;;
14348;SDS011;7258;50.376;8.742;2024-01-07T11:21:08;10.47;;;8.60;;
14348;SDS011;7258;50.376;8.742;2024-01-07T11:23:27;10.17;;;8.87;;
14348;SDS011;7258;50.376;8.742;2024-01-07T11:25:32;10.60;;;8.90;;
14348;SDS011;7258;50.376;8.742;2024-01-07T11:27:36;11.50;;;8.90;;
14348;SDS011;7258;50.376;8.742;2024-01-07T11:29:40;10.70;;;8.10;;
14348;SDS011;7258;50.376;8.742;2024-01-07T11:31:43;11.63;;;8.60;;
14348;SDS011;7258;50.376;8.742;2024-01-07T11:33:48;10.73;;;8.57;;
14348;SDS011;7258;50.376;8.742;2024-01-07T11:35:55;10.57;;;8.17;;
14348;SDS011;7258;50.376;8.742;2024-01-07T11:37:58;9.50;;;8.13;;
14348;SDS011;7258;50.376;8.742;2024-01-07T11:40:04;10.97;;;7.63;;
14348;SDS011;7258;50.376;8.742;2024-01-07T11:42:08;10.03;;;7.53;;
14348;SDS011;7258;50.376;8.742;2024-01-07T11:44:10;9.83;;;7.33;;
14348;SDS011;7258;50.376;8.742;2024-01-07T11:46:17;12.20;;;7.93;;
14348;SDS011;7258;50.376;8.742;2024-01-07T11:48:19;8.80;;;7.07;;
14348;SDS011;7258;50.376;8.742;2024-01-07T11:50:23;8.50;;;7.30;;
14348;SDS011;7258;50.376;8.742;2024-01-07T11:52:25;9.63;;;7.57;;
14348;SDS011;7258;50.376;8.742;2024-01-07T11:54:30;12.67;;;8.77;;
14348;SDS011;7258;50.376;8.742;2024-01-07T11:56:33;11.20;;;7.70;;
14348;SDS011;7258;50.376;8.742;2024-01-07T11:58:36;9.57;;;7.33;;
14348;SDS011;7258;50.376;8.742;2024-01-07T12:00:38;11.43;;;7.57;;
14348;SDS011;7258;50.376;8.742;2024-01-07T12:02:43;9.53;;;8.07;;
14348;SDS011;7258;50.376;8.742;2024-01-07T12:04:45;11.50;;;7.67;;
14348;SDS011;7258;50.376;8.742;2024-01-07T12:06:48;11.53;;;8.43;;
14348;SDS011;7258;50.376;8.742;2024-01-07T12:08:50;9.40;;;7.43;;
14348;SDS011;7258;50.376;8.742;2024-01-07T12:10:54;9.30;;;7.20;;
14348;SDS011;7258;50.376;8.742;2024-01-07T12:12:58;8.17;;;6.37;;
14348;SDS011;7258;50.376;8.742;2024-01-07T12:15:01;10.73;;;6.93;;
14348;SDS011;7258;50.376;8.742;2024-01-07T12:17:08;7.53;;;6.53;;
14348;SDS011;7258;50.376;8.742;2024-01-07T12:19:15;8.07;;;6.57;;
14348;SDS011;7258;50.376;8.742;2024-01-07T12:21:19;8.83;;;6.50;;
14348;SDS011;7258;50.376;8.742;2024-01-07T12:23:23;6.63;;;5.93;;
14348;SDS011;7258;50.376;8.742;2024-01-07T12:25:27;8.40;;;6.27;;
14348;SDS011;7258;50.376;8.742;2024-01-07T12:27:30;8.80;;;7.00;;